createdAt,value
2022-09-01T00:00:49.216Z,13.90
2022-09-01T00:03:18.577Z,14.00
2022-09-01T00:05:51.270Z,14.00
2022-09-01T00:08:20.315Z,13.90
2022-09-01T00:10:48.997Z,14.00
2022-09-01T00:13:18.925Z,14.00
2022-09-01T00:15:48.687Z,14.00
2022-09-01T00:18:16.989Z,14.00
2022-09-01T00:20:45.203Z,14.10
2022-09-01T00:23:13.423Z,14.00
2022-09-01T00:25:41.564Z,14.00
2022-09-01T00:28:09.973Z,14.00
2022-09-01T00:30:38.155Z,14.00
2022-09-01T00:33:08.125Z,14.00
2022-09-01T00:35:37.461Z,14.00
2022-09-01T00:38:06.056Z,14.00
2022-09-01T00:40:34.496Z,14.00
2022-09-01T00:43:02.859Z,14.00
2022-09-01T00:45:32.254Z,14.00
2022-09-01T00:48:00.771Z,13.90
2022-09-01T00:50:30.671Z,13.90
2022-09-01T00:52:58.929Z,13.90
2022-09-01T00:55:30.431Z,13.90
2022-09-01T00:58:03.517Z,13.90
2022-09-01T01:00:34.096Z,13.90
2022-09-01T01:03:02.421Z,13.80
2022-09-01T01:05:37.247Z,13.80
2022-09-01T01:08:08.263Z,13.80
2022-09-01T01:10:39.928Z,13.80
2022-09-01T01:13:10.292Z,13.80
2022-09-01T01:15:39.114Z,13.80
2022-09-01T01:18:07.389Z,13.80
2022-09-01T01:20:54.648Z,13.90
2022-09-01T01:23:31.021Z,13.90
2022-09-01T01:26:01.915Z,13.90
2022-09-01T01:28:33.147Z,13.90
2022-09-01T01:31:06.122Z,13.90
2022-09-01T01:33:40.709Z,13.90
2022-09-01T01:36:13.349Z,13.90
2022-09-01T01:38:43.489Z,13.90
2022-09-01T01:41:14.019Z,13.90
2022-09-01T01:43:43.110Z,13.90
2022-09-01T01:46:14.392Z,13.90
2022-09-01T01:48:44.076Z,13.90
2022-09-01T01:51:13.967Z,13.90
2022-09-01T01:53:43.560Z,13.80
2022-09-01T01:56:13.282Z,13.80
2022-09-01T01:58:41.680Z,13.80
2022-09-01T02:01:13.007Z,13.80
2022-09-01T02:03:41.996Z,13.80
2022-09-01T02:06:11.996Z,13.70
2022-09-01T02:08:41.424Z,13.70
2022-09-01T02:11:11.079Z,13.60
2022-09-01T02:13:40.956Z,13.60
2022-09-01T02:16:12.840Z,13.60
2022-09-01T02:18:44.477Z,13.60
2022-09-01T02:21:18.994Z,13.60
2022-09-01T02:23:49.094Z,13.60
2022-09-01T02:26:19.237Z,13.70
2022-09-01T02:28:55.804Z,13.60
2022-09-01T02:31:25.173Z,13.60
2022-09-01T02:33:54.587Z,13.60
2022-09-01T02:36:25.371Z,13.50
2022-09-01T02:38:56.519Z,13.50
2022-09-01T02:41:29.122Z,13.40
2022-09-01T02:44:02.380Z,13.40
2022-09-01T02:46:30.849Z,13.30
2022-09-01T02:49:00.648Z,13.30
2022-09-01T02:51:29.046Z,13.30
2022-09-01T02:53:58.026Z,13.30
2022-09-01T02:56:27.433Z,13.20
2022-09-01T02:58:56.821Z,13.20
2022-09-01T03:01:29.760Z,13.20
2022-09-01T03:04:02.252Z,13.20
2022-09-01T03:06:34.697Z,13.10
2022-09-01T03:09:05.635Z,13.10
2022-09-01T03:11:36.138Z,13.10
2022-09-01T03:14:05.118Z,13.10
2022-09-01T03:16:35.336Z,13.10
2022-09-01T03:19:07.467Z,13.10
2022-09-01T03:21:36.067Z,13.10
2022-09-01T03:24:05.372Z,13.10
2022-09-01T03:26:33.766Z,13.10
2022-09-01T03:29:01.915Z,13.10
2022-09-01T03:31:32.164Z,13.10
2022-09-01T03:34:03.484Z,13.10
2022-09-01T03:36:33.383Z,13.10
2022-09-01T03:39:02.731Z,13.10
2022-09-01T03:41:32.936Z,13.10
2022-09-01T03:44:01.136Z,13.10
2022-09-01T03:46:35.840Z,13.10
2022-09-01T03:49:08.067Z,13.10
2022-09-01T03:51:38.078Z,13.10
2022-09-01T03:54:06.797Z,13.00
2022-09-01T03:56:35.275Z,13.10
2022-09-01T03:59:04.294Z,13.10
2022-09-01T04:01:43.731Z,13.10
2022-09-01T04:04:15.099Z,13.00
2022-09-01T04:06:45.323Z,13.00
2022-09-01T04:09:13.663Z,13.00
2022-09-01T04:11:45.689Z,13.00
2022-09-01T04:14:14.725Z,12.90
2022-09-01T04:17:01.887Z,12.90
2022-09-01T04:19:37.236Z,12.90
2022-09-01T04:22:07.954Z,12.80
2022-09-01T04:24:36.211Z,12.80
2022-09-01T04:27:07.343Z,12.80
2022-09-01T04:29:36.025Z,12.70
2022-09-01T04:32:12.926Z,12.70
2022-09-01T04:34:43.752Z,12.70
2022-09-01T04:37:15.452Z,12.70
2022-09-01T04:39:52.562Z,12.70
2022-09-01T04:42:23.494Z,12.70
2022-09-01T04:44:52.651Z,12.70
2022-09-01T04:47:35.596Z,12.70
2022-09-01T04:50:14.546Z,12.70
2022-09-01T04:52:43.867Z,12.60
2022-09-01T04:55:18.806Z,12.70
2022-09-01T04:57:49.647Z,12.70
2022-09-01T05:00:23.690Z,12.70
2022-09-01T05:02:53.796Z,12.70
2022-09-01T05:05:25.159Z,12.70
2022-09-01T05:07:55.683Z,12.70
2022-09-01T05:10:30.114Z,12.80
2022-09-01T05:12:58.598Z,12.80
2022-09-01T05:15:26.816Z,12.80
2022-09-01T05:17:56.569Z,12.80
2022-09-01T05:20:30.338Z,12.80
2022-09-01T05:22:58.706Z,12.90
2022-09-01T05:25:27.737Z,12.90
2022-09-01T05:27:58.275Z,12.90
2022-09-01T05:30:28.940Z,13.00
2022-09-01T05:32:59.004Z,13.00
2022-09-01T05:35:32.685Z,13.10
2022-09-01T05:38:01.638Z,13.20
2022-09-01T05:40:42.831Z,13.20
2022-09-01T05:43:18.033Z,13.20
2022-09-01T05:46:05.517Z,13.20
2022-09-01T05:48:40.000Z,13.30
2022-09-01T05:51:33.537Z,13.40
2022-09-01T05:54:00.456Z,13.40
2022-09-01T05:56:31.254Z,13.50
2022-09-01T06:01:50.754Z,13.60
2022-09-01T06:04:20.187Z,13.70
2022-09-01T06:07:10.352Z,13.70
2022-09-01T06:09:42.808Z,13.80
2022-09-01T06:12:17.488Z,13.80
2022-09-01T06:14:48.474Z,13.80
2022-09-01T06:17:19.628Z,13.80
2022-09-01T06:19:48.228Z,13.70
2022-09-01T06:22:18.143Z,13.80
2022-09-01T06:24:53.287Z,13.90
2022-09-01T06:27:24.055Z,14.00
2022-09-01T06:29:56.259Z,14.00
2022-09-01T06:32:26.068Z,14.00
2022-09-01T06:34:54.692Z,13.90
2022-09-01T06:37:24.565Z,13.80
2022-09-01T06:39:52.967Z,13.90
2022-09-01T06:42:23.620Z,13.80
2022-09-01T06:44:52.661Z,13.90
2022-09-01T06:47:21.244Z,14.00
2022-09-01T06:49:52.613Z,13.90
2022-09-01T06:52:26.091Z,14.00
2022-09-01T06:54:55.073Z,14.10
2022-09-01T07:00:18.809Z,14.30
2022-09-01T07:02:47.873Z,14.40
2022-09-01T07:08:13.521Z,14.40
2022-09-01T07:13:35.635Z,14.40
2022-09-01T07:18:59.008Z,14.40
2022-09-01T07:21:39.111Z,14.50
2022-09-01T07:24:12.270Z,14.60
2022-09-01T07:26:47.270Z,14.80
2022-09-01T07:29:17.554Z,14.80
2022-09-01T07:31:49.474Z,14.80
2022-09-01T07:43:12.966Z,14.90
2022-09-01T07:47:19.586Z,14.90
2022-09-01T07:51:36.512Z,15.30
2022-09-01T07:54:05.761Z,15.50
2022-09-01T07:56:40.255Z,15.60
2022-09-01T07:59:12.721Z,15.60
2022-09-01T08:01:44.313Z,15.60
2022-09-01T08:04:12.599Z,15.60
2022-09-01T08:06:42.241Z,15.60
2022-09-01T08:09:11.782Z,15.60
2022-09-01T08:14:34.667Z,15.80
2022-09-01T08:17:55.690Z,16.10
2022-09-01T08:20:24.258Z,16.20
2022-09-01T08:22:54.890Z,16.30
2022-09-01T08:25:25.103Z,16.20
2022-09-01T08:28:00.553Z,16.10
2022-09-01T08:30:30.029Z,16.10
2022-09-01T08:32:58.551Z,16.20
2022-09-01T08:35:29.701Z,16.10
2022-09-01T08:38:00.240Z,16.10
2022-09-01T08:40:29.165Z,16.20
2022-09-01T08:43:14.718Z,16.20
2022-09-01T08:45:48.706Z,16.30
2022-09-01T08:49:09.683Z,16.40
2022-09-01T08:51:19.977Z,16.50
2022-09-01T08:53:58.209Z,16.50
2022-09-01T08:56:28.038Z,16.50
2022-09-01T09:01:32.757Z,16.40
2022-09-01T09:04:27.915Z,16.30
2022-09-01T09:07:08.746Z,16.30
2022-09-01T09:09:42.593Z,16.30
2022-09-01T09:12:33.975Z,16.40
2022-09-01T09:15:16.354Z,16.50
2022-09-01T09:17:55.991Z,16.60
2022-09-01T09:20:27.580Z,16.80
2022-09-01T09:22:59.316Z,16.90
2022-09-01T09:25:29.756Z,17.20
2022-09-01T09:28:01.558Z,17.30
2022-09-01T09:30:35.148Z,17.60
2022-09-01T09:35:57.499Z,18.30
2022-09-01T09:38:30.383Z,18.30
2022-09-01T09:41:18.928Z,18.40
2022-09-01T09:43:55.969Z,18.40
2022-09-01T09:46:36.664Z,18.50
2022-09-01T09:49:14.712Z,18.40
2022-09-01T09:51:48.585Z,18.30
2022-09-01T09:54:22.059Z,18.20
2022-09-01T09:57:04.888Z,17.90
2022-09-01T09:59:57.108Z,17.60
2022-09-01T10:02:29.480Z,17.40
2022-09-01T10:04:59.013Z,17.40
2022-09-01T10:07:31.670Z,17.50
2022-09-01T10:10:03.719Z,17.70
2022-09-01T10:12:33.400Z,17.90
2022-09-01T10:15:07.118Z,18.10
2022-09-01T10:17:45.414Z,18.20
2022-09-01T10:20:21.103Z,18.50
2022-09-01T10:22:51.321Z,18.90
2022-09-01T10:25:24.160Z,19.00
2022-09-01T10:27:58.992Z,19.10
2022-09-01T10:30:28.007Z,19.00
2022-09-01T10:33:07.419Z,18.90
2022-09-01T10:35:44.879Z,19.00
2022-09-01T10:38:18.714Z,19.00
2022-09-01T10:40:49.518Z,19.10
2022-09-01T10:43:36.244Z,19.10
2022-09-01T10:46:51.237Z,19.10
2022-09-01T10:49:59.536Z,19.20
2022-09-01T10:52:58.790Z,19.40
2022-09-01T10:55:39.942Z,19.50
2022-09-01T11:01:34.998Z,19.60
2022-09-01T11:04:05.367Z,19.60
2022-09-01T11:07:17.307Z,19.70
2022-09-01T11:10:32.809Z,19.70
2022-09-01T11:13:24.734Z,19.30
2022-09-01T11:15:54.740Z,18.80
2022-09-01T11:18:29.490Z,18.80
2022-09-01T11:21:16.292Z,18.80
2022-09-01T11:23:47.150Z,19.00
2022-09-01T11:26:49.098Z,19.20
2022-09-01T11:29:50.615Z,19.30
2022-09-01T11:32:23.192Z,19.50
2022-09-01T11:34:54.884Z,19.50
2022-09-01T11:37:27.500Z,19.40
2022-09-01T11:40:02.327Z,19.50
2022-09-01T11:42:40.058Z,19.80
2022-09-01T11:45:21.548Z,20.10
2022-09-01T11:47:53.260Z,20.40
2022-09-01T11:50:24.193Z,20.80
2022-09-01T11:53:04.073Z,21.20
2022-09-01T11:55:38.158Z,21.10
2022-09-01T11:58:07.592Z,20.90
2022-09-01T12:00:38.410Z,20.90
2022-09-01T12:03:20.305Z,20.80
2022-09-01T12:05:54.619Z,21.00
2022-09-01T12:08:24.105Z,21.60
2022-09-01T12:11:04.991Z,22.30
2022-09-01T12:13:33.423Z,22.50
2022-09-01T12:16:20.952Z,22.40
2022-09-01T12:18:52.423Z,22.00
2022-09-01T12:21:24.452Z,21.20
2022-09-01T12:23:53.194Z,20.80
2022-09-01T12:26:26.597Z,20.30
2022-09-01T12:28:54.916Z,20.10
2022-09-01T12:31:25.107Z,20.00
2022-09-01T12:33:55.235Z,19.90
2022-09-01T12:36:28.212Z,19.90
2022-09-01T12:38:58.327Z,20.00
2022-09-01T12:41:35.130Z,20.00
2022-09-01T12:44:30.473Z,20.20
2022-09-01T12:47:00.873Z,20.60
2022-09-01T12:49:48.025Z,20.90
2022-09-01T12:52:26.363Z,21.20
2022-09-01T12:55:09.767Z,21.20
2022-09-01T12:57:45.388Z,21.00
2022-09-01T13:00:23.335Z,21.00
2022-09-01T13:02:53.537Z,20.90
2022-09-01T13:05:31.818Z,20.80
2022-09-01T13:08:04.419Z,20.70
2022-09-01T13:10:38.051Z,20.50
2022-09-01T13:13:08.772Z,20.40
2022-09-01T13:15:38.684Z,20.20
2022-09-01T13:18:06.994Z,20.00
2022-09-01T13:20:35.402Z,19.90
2022-09-01T13:23:03.891Z,19.90
2022-09-01T13:25:32.091Z,19.80
2022-09-01T13:28:02.905Z,19.90
2022-09-01T13:30:32.890Z,20.00
2022-09-01T13:35:50.056Z,20.30
2022-09-01T13:38:18.787Z,20.40
2022-09-01T13:40:49.142Z,20.60
2022-09-01T13:43:20.062Z,20.60
2022-09-01T13:45:51.597Z,20.60
2022-09-01T13:48:25.113Z,20.50
2022-09-01T13:53:42.600Z,20.50
2022-09-01T13:56:10.753Z,20.50
2022-09-01T13:58:39.309Z,20.50
2022-09-01T14:01:09.677Z,20.60
2022-09-01T14:03:39.315Z,20.70
2022-09-01T14:06:08.017Z,20.70
2022-09-01T14:08:36.289Z,20.60
2022-09-01T14:11:04.518Z,20.50
2022-09-01T14:13:33.245Z,20.40
2022-09-01T14:16:01.738Z,20.30
2022-09-01T14:18:36.970Z,20.30
2022-09-01T14:21:05.483Z,20.30
2022-09-01T14:23:34.079Z,20.50
2022-09-01T14:26:04.366Z,20.70
2022-09-01T14:28:32.675Z,20.80
2022-09-01T14:31:05.860Z,20.60
2022-09-01T14:33:36.470Z,20.40
2022-09-01T14:36:05.462Z,20.20
2022-09-01T14:38:35.527Z,20.20
2022-09-01T14:41:05.641Z,20.50
2022-09-01T14:43:38.463Z,20.70
2022-09-01T14:46:10.827Z,20.60
2022-09-01T14:48:41.797Z,20.50
2022-09-01T14:51:14.217Z,20.30
2022-09-01T14:53:43.055Z,20.10
2022-09-01T14:56:11.123Z,20.10
2022-09-01T14:58:40.747Z,20.00
2022-09-01T15:01:32.644Z,20.10
2022-09-01T15:04:01.135Z,20.10
2022-09-01T15:06:29.786Z,20.20
2022-09-01T15:08:57.965Z,20.10
2022-09-01T15:11:26.549Z,20.00
2022-09-01T15:13:55.586Z,19.80
2022-09-01T15:16:25.974Z,19.80
2022-09-01T15:18:55.777Z,19.70
2022-09-01T15:21:28.683Z,19.70
2022-09-01T15:23:58.012Z,19.60
2022-09-01T15:26:27.792Z,19.60
2022-09-01T15:28:57.023Z,19.60
2022-09-01T15:31:32.875Z,19.70
2022-09-01T15:34:03.271Z,19.70
2022-09-01T15:36:35.762Z,19.70
2022-09-01T15:39:04.353Z,19.80
2022-09-01T15:41:34.888Z,19.80
2022-09-01T15:44:06.142Z,19.70
2022-09-01T15:46:39.265Z,19.60
2022-09-01T15:49:10.852Z,19.60
2022-09-01T15:51:46.689Z,19.50
2022-09-01T15:54:18.365Z,19.40
2022-09-01T15:56:58.085Z,19.30
2022-09-01T15:59:26.743Z,19.20
2022-09-01T16:02:01.010Z,19.20
2022-09-01T16:04:42.744Z,19.20
2022-09-01T16:07:13.511Z,19.20
2022-09-01T16:09:43.930Z,19.20
2022-09-01T16:12:15.046Z,19.20
2022-09-01T16:14:48.175Z,19.20
2022-09-01T16:17:23.258Z,19.20
2022-09-01T16:19:59.822Z,19.10
2022-09-01T16:22:39.215Z,19.10
2022-09-01T16:25:14.929Z,19.10
2022-09-01T16:28:01.395Z,18.90
2022-09-01T16:30:36.654Z,19.00
2022-09-01T16:33:27.371Z,18.90
2022-09-01T16:36:20.541Z,18.90
2022-09-01T16:38:58.185Z,18.80
2022-09-01T16:41:49.109Z,18.80
2022-09-01T16:44:49.666Z,18.80
2022-09-01T16:47:51.356Z,18.70
2022-09-01T16:50:37.592Z,18.60
2022-09-01T16:53:20.431Z,18.60
2022-09-01T16:56:21.030Z,18.50
2022-09-01T16:59:03.606Z,18.40
2022-09-01T17:01:42.887Z,18.40
2022-09-01T17:04:29.580Z,18.20
2022-09-01T17:07:03.786Z,18.20
2022-09-01T17:09:36.429Z,18.10
2022-09-01T17:12:23.551Z,18.00
2022-09-01T17:14:57.825Z,17.90
2022-09-01T17:17:36.085Z,18.00
2022-09-01T17:20:08.491Z,17.90
2022-09-01T17:22:39.695Z,17.90
2022-09-01T17:25:13.794Z,17.80
2022-09-01T17:27:58.140Z,17.60
2022-09-01T17:30:36.216Z,17.50
2022-09-01T17:33:18.524Z,17.50
2022-09-01T17:36:11.244Z,17.40
2022-09-01T17:38:54.334Z,17.30
2022-09-01T17:41:34.476Z,17.30
2022-09-01T17:44:21.222Z,17.20
2022-09-01T17:46:58.344Z,17.10
2022-09-01T17:49:36.676Z,17.00
2022-09-01T17:52:14.232Z,16.90
2022-09-01T17:54:51.539Z,16.80
2022-09-01T17:57:36.162Z,16.70
2022-09-01T18:00:14.326Z,16.60
2022-09-01T18:03:03.081Z,16.50
2022-09-01T18:05:42.908Z,16.40
2022-09-01T18:08:35.814Z,16.30
2022-09-01T18:11:11.647Z,16.20
2022-09-01T18:13:53.303Z,16.10
2022-09-01T18:16:29.547Z,16.00
2022-09-01T18:19:24.828Z,15.90
2022-09-01T18:21:58.153Z,15.80
2022-09-01T18:24:49.935Z,15.60
2022-09-01T18:27:24.278Z,15.60
2022-09-01T18:29:59.111Z,15.40
2022-09-01T18:32:42.889Z,15.40
2022-09-01T18:35:31.137Z,15.30
2022-09-01T18:38:30.987Z,15.20
2022-09-01T18:41:21.373Z,15.10
2022-09-01T18:44:15.958Z,15.00
2022-09-01T18:47:00.420Z,14.90
2022-09-01T18:49:44.983Z,14.90
2022-09-01T18:52:34.225Z,14.80
2022-09-01T18:55:10.334Z,14.70
2022-09-01T18:57:56.353Z,14.70
2022-09-01T19:00:42.396Z,14.70
2022-09-01T19:03:23.702Z,14.80
2022-09-01T19:06:14.393Z,14.80
2022-09-01T19:08:57.555Z,14.80
2022-09-01T19:11:49.340Z,14.80
2022-09-01T19:14:27.021Z,14.80
2022-09-01T19:17:14.204Z,14.70
2022-09-01T19:19:51.967Z,14.70
2022-09-01T19:22:29.301Z,14.60
2022-09-01T19:25:22.960Z,14.60
2022-09-01T19:28:00.132Z,14.50
2022-09-01T19:30:29.286Z,14.50
2022-09-01T19:33:06.561Z,14.50
2022-09-01T19:35:39.855Z,14.40
2022-09-01T19:38:20.117Z,14.30
2022-09-01T19:40:54.343Z,14.30
2022-09-01T19:43:24.990Z,14.30
2022-09-01T19:46:06.124Z,14.30
2022-09-01T19:48:42.983Z,14.20
2022-09-01T19:51:21.636Z,14.20
2022-09-01T19:53:59.225Z,14.20
2022-09-01T19:56:35.526Z,14.10
2022-09-01T19:59:14.136Z,14.20
2022-09-01T20:01:50.485Z,14.10
2022-09-01T20:04:27.344Z,14.10
2022-09-01T20:06:59.322Z,14.00
2022-09-01T20:09:38.791Z,14.00
2022-09-01T20:12:14.751Z,13.90
2022-09-01T20:14:55.502Z,13.80
2022-09-01T20:17:28.375Z,13.70
2022-09-01T20:20:05.282Z,13.70
2022-09-01T20:22:43.249Z,13.70
2022-09-01T20:25:16.062Z,13.60
2022-09-01T20:27:53.142Z,13.50
2022-09-01T20:30:25.236Z,13.50
2022-09-01T20:33:02.702Z,13.50
2022-09-01T20:35:39.851Z,13.40
2022-09-01T20:38:29.867Z,13.40
2022-09-01T20:41:03.668Z,13.20
2022-09-01T20:43:37.106Z,13.20
2022-09-01T20:46:05.288Z,13.10
2022-09-01T20:48:39.516Z,13.00
2022-09-01T20:51:15.438Z,13.00
2022-09-01T20:54:00.584Z,12.90
2022-09-01T20:56:42.266Z,12.90
2022-09-01T20:59:19.037Z,12.90
2022-09-01T21:01:53.824Z,12.90
2022-09-01T21:04:37.625Z,12.80
2022-09-01T21:07:14.319Z,12.80
2022-09-01T21:09:52.464Z,12.80
2022-09-01T21:12:29.758Z,12.70
2022-09-01T21:15:09.176Z,12.60
2022-09-01T21:17:46.233Z,12.70
2022-09-01T21:20:27.348Z,12.60
2022-09-01T21:22:58.468Z,12.60
2022-09-01T21:25:27.101Z,12.60
2022-09-01T21:27:59.875Z,12.60
2022-09-01T21:30:32.960Z,12.50
2022-09-01T21:33:02.047Z,12.50
2022-09-01T21:35:30.483Z,12.50
2022-09-01T21:37:58.939Z,12.50
2022-09-01T21:40:27.845Z,12.50
2022-09-01T21:43:01.297Z,12.50
2022-09-01T21:45:30.365Z,12.40
2022-09-01T21:47:59.086Z,12.30
2022-09-01T21:50:27.717Z,12.30
2022-09-01T21:52:56.207Z,12.20
2022-09-01T21:55:25.075Z,12.20
2022-09-01T21:57:53.848Z,12.20
2022-09-01T22:00:26.987Z,12.10
2022-09-01T22:02:57.655Z,12.10
2022-09-01T22:05:26.760Z,12.00
2022-09-01T22:07:56.667Z,12.00
2022-09-01T22:10:26.909Z,12.00
2022-09-01T22:12:56.910Z,12.00
2022-09-01T22:15:28.235Z,11.90
2022-09-01T22:17:58.579Z,11.90
2022-09-01T22:20:28.548Z,11.80
2022-09-01T22:23:01.888Z,11.80
2022-09-01T22:25:31.184Z,11.70
2022-09-01T22:27:59.704Z,11.70
2022-09-01T22:30:29.446Z,11.60
2022-09-01T22:32:57.967Z,11.70
2022-09-01T22:35:26.255Z,11.60
2022-09-01T22:37:55.029Z,11.60
2022-09-01T22:40:23.459Z,11.50
2022-09-01T22:42:52.543Z,11.40
2022-09-01T22:45:21.339Z,11.40
2022-09-01T22:47:51.263Z,11.30
2022-09-01T22:50:19.701Z,11.40
2022-09-01T22:52:48.297Z,11.30
2022-09-01T22:55:16.585Z,11.40
2022-09-01T22:57:53.754Z,11.30
2022-09-01T23:00:22.116Z,11.20
2022-09-01T23:02:52.075Z,11.20
2022-09-01T23:05:22.321Z,11.10
2022-09-01T23:07:50.567Z,11.10
2022-09-01T23:10:19.316Z,11.10
2022-09-01T23:12:47.739Z,11.10
2022-09-01T23:15:16.023Z,11.10
2022-09-01T23:17:44.923Z,11.00
2022-09-01T23:23:08.325Z,10.90
2022-09-01T23:25:36.897Z,10.90
2022-09-01T23:28:05.582Z,10.80
2022-09-01T23:30:34.343Z,10.80
2022-09-01T23:33:02.780Z,10.80
2022-09-01T23:35:32.747Z,10.70
2022-09-01T23:38:00.947Z,10.60
2022-09-01T23:40:29.259Z,10.70
2022-09-01T23:42:57.620Z,10.70
2022-09-01T23:45:29.823Z,10.70
2022-09-01T23:48:04.425Z,10.70
2022-09-01T23:50:43.159Z,10.60
2022-09-01T23:53:13.712Z,10.60
2022-09-01T23:55:46.164Z,10.50
2022-09-01T23:58:15.599Z,10.50
